Time;durP1;ratioP1;P1;durP2;ratioP2;P2;SDS_P1;SDS_P2;PMS_P1;PMS_P2;Temp;Humidity;BMP_temperature;BMP_pressure;BME280_temperature;BME280_humidity;BME280_pressure;Samples;Min_cycle;Max_cycle;Signal;HPM_P1;HPM_P2
2021/06/26 00:01:59;;;;;;;;;;;;;;;25.44;40.16;101467.78;4952001;28;97177;-81
2021/06/26 00:04:25;;;;;;;;;;;;;;;25.40;40.53;101472.59;4947379;28;96917;-81
2021/06/26 00:06:51;;;;;;;;;;;;;;;25.48;40.12;101474.63;4958840;28;98859;-82
2021/06/26 00:09:19;;;;;;;;;;;;;;;25.24;40.04;101480.31;4958882;28;99235;-83
2021/06/26 00:11:45;;;;;;;;;;;;;;;25.36;39.46;101470.28;4955448;28;98381;-85
2021/06/26 00:14:11;;;;;;;;;;;;;;;24.90;38.92;101481.44;4969000;28;96706;-84
2021/06/26 00:16:38;;;;;;;;;;;;;;;25.46;38.44;101476.63;4962968;28;97837;-84
2021/06/26 00:19:04;;;;;;;;;;;;;;;25.39;39.34;101475.44;4957478;28;98023;-83
2021/06/26 00:21:30;;;;;;;;;;;;;;;25.39;39.00;101478.16;4967899;28;96518;-85
2021/06/26 00:23:57;;;;;;;;;;;;;;;25.11;40.65;101476.94;4972350;28;96716;-85
2021/06/26 00:26:26;;;;;;;;;;;;;;;24.97;41.95;101479.94;4976780;28;97871;-85
2021/06/26 00:28:52;;;;;;;;;;;;;;;24.96;42.04;101479.09;4971357;28;98106;-84
2021/06/26 00:31:19;;;;;;;;;;;;;;;24.96;41.72;101486.34;4963820;28;96709;-84
2021/06/26 00:33:45;;;;;;;;;;;;;;;25.02;40.90;101488.53;4943715;28;97548;-84
2021/06/26 00:36:12;;;;;;;;;;;;;;;24.91;40.33;101486.72;4957647;28;98190;-83
2021/06/26 00:38:38;;;;;;;;;;;;;;;24.99;40.44;101473.44;4960567;28;99465;-84
2021/06/26 00:41:05;;;;;;;;;;;;;;;25.01;40.02;101481.41;4952899;28;96772;-84
2021/06/26 00:43:32;;;;;;;;;;;;;;;24.87;40.30;101485.25;4960115;28;96915;-84
2021/06/26 00:45:59;;;;;;;;;;;;;;;24.53;40.45;101486.34;4953441;28;99321;-84
2021/06/26 00:48:25;;;;;;;;;;;;;;;24.53;40.59;101487.19;4963873;28;96702;-84
2021/06/26 00:50:51;;;;;;;;;;;;;;;24.44;40.19;101487.94;4961435;28;96861;-85
2021/06/26 00:53:18;;;;;;;;;;;;;;;24.54;40.46;101488.91;4950695;28;97058;-86
2021/06/26 00:55:51;;;;;;;;;;;;;;;24.21;41.62;101492.53;4956684;28;98252;-83
2021/06/26 00:58:18;;;;;;;;;;;;;;;24.44;41.24;101489.78;4953915;28;98640;-83
2021/06/26 01:00:46;;;;;;;;;;;;;;;24.51;40.97;101485.59;4960473;28;96995;-84
2021/06/26 01:03:12;;;;;;;;;;;;;;;24.33;42.00;101482.56;4960374;28;96857;-84
2021/06/26 01:05:41;;;;;;;;;;;;;;;24.50;41.36;101484.72;4947715;28;97798;-85
2021/06/26 01:08:08;;;;;;;;;;;;;;;24.46;41.56;101485.13;4952642;28;98778;-85
2021/06/26 01:10:34;;;;;;;;;;;;;;;24.40;41.83;101491.88;4954876;28;96758;-84
2021/06/26 01:13:00;;;;;;;;;;;;;;;24.30;41.44;101481.94;4947989;28;97511;-85
2021/06/26 01:15:27;;;;;;;;;;;;;;;24.19;41.80;101482.81;4941524;28;96891;-85
2021/06/26 01:17:54;;;;;;;;;;;;;;;24.01;42.42;101486.97;4951926;28;99174;-84
2021/06/26 01:20:21;;;;;;;;;;;;;;;23.89;43.76;101491.53;4959864;28;96707;-84
2021/06/26 01:22:59;;;;;;;;;;;;;;;23.79;44.40;101479.72;4960308;28;96895;-86
2021/06/26 01:25:27;;;;;;;;;;;;;;;23.89;44.19;101486.13;4946935;28;98941;-83
2021/06/26 01:27:54;;;;;;;;;;;;;;;23.76;43.89;101478.13;4955663;28;99178;-86
2021/06/26 01:30:23;;;;;;;;;;;;;;;23.82;44.49;101484.88;4955201;28;97145;-84
2021/06/26 01:32:49;;;;;;;;;;;;;;;23.47;45.24;101481.34;4959023;28;96865;-83
2021/06/26 01:35:16;;;;;;;;;;;;;;;23.30;45.71;101488.06;4962989;28;98989;-86
2021/06/26 01:37:42;;;;;;;;;;;;;;;23.24;45.96;101481.28;4952274;28;98219;-84
2021/06/26 01:40:14;;;;;;;;;;;;;;;23.15;46.47;101483.84;4948232;28;96737;-84
2021/06/26 01:42:41;;;;;;;;;;;;;;;23.31;45.97;101487.06;4954029;28;96659;-84
2021/06/26 01:45:08;;;;;;;;;;;;;;;23.16;47.10;101491.81;4947823;28;97966;-83
2021/06/26 01:47:34;;;;;;;;;;;;;;;23.09;47.29;101493.28;4960605;28;97704;-84
2021/06/26 01:50:02;;;;;;;;;;;;;;;22.91;47.75;101508.09;4961035;28;96815;-84
2021/06/26 01:52:29;;;;;;;;;;;;;;;22.64;48.11;101500.25;4950381;28;96797;-84
2021/06/26 01:54:55;;;;;;;;;;;;;;;22.85;47.61;101497.78;4960854;28;100027;-84
2021/06/26 01:57:22;;;;;;;;;;;;;;;22.58;48.32;101498.84;4949307;28;98805;-84
2021/06/26 01:59:49;;;;;;;;;;;;;;;22.73;48.00;101504.97;4961149;28;96647;-84
2021/06/26 02:02:15;;;;;;;;;;;;;;;22.72;47.92;101507.72;4949089;28;96887;-83
2021/06/26 02:04:41;;;;;;;;;;;;;;;23.13;47.03;101501.97;4948583;28;99368;-84
2021/06/26 02:07:07;;;;;;;;;;;;;;;23.04;47.48;101503.50;4954258;28;99262;-84
2021/06/26 02:09:34;;;;;;;;;;;;;;;23.02;47.31;101502.78;4940551;28;96856;-84
2021/06/26 02:12:00;;;;;;;;;;;;;;;22.79;47.32;101500.94;4945741;28;96940;-84
2021/06/26 02:14:28;;;;;;;;;;;;;;;22.82;47.56;101496.22;4944885;28;101044;-84
2021/06/26 02:16:54;;;;;;;;;;;;;;;22.66;47.82;101501.84;4955813;28;98001;-85
2021/06/26 02:19:21;;;;;;;;;;;;;;;22.61;48.31;101501.31;4951833;28;96692;-84
2021/06/26 02:21:47;;;;;;;;;;;;;;;22.47;48.68;101506.84;4942831;28;96803;-84
2021/06/26 02:24:13;;;;;;;;;;;;;;;22.56;48.54;101506.19;4961287;28;98465;-83
2021/06/26 02:26:39;;;;;;;;;;;;;;;22.49;48.77;101510.31;4948565;28;98786;-83
2021/06/26 02:29:06;;;;;;;;;;;;;;;22.57;48.70;101507.91;4947996;28;96931;-82
2021/06/26 02:31:33;;;;;;;;;;;;;;;22.35;49.32;101510.44;4946294;28;96864;-83
2021/06/26 02:33:59;;;;;;;;;;;;;;;22.44;48.99;101517.88;4959916;28;97922;-84
2021/06/26 02:36:26;;;;;;;;;;;;;;;22.21;49.92;101514.13;4958757;28;97745;-84
2021/06/26 02:38:52;;;;;;;;;;;;;;;22.57;48.97;101510.63;4950146;28;96801;-84
2021/06/26 02:41:21;;;;;;;;;;;;;;;22.22;49.70;101507.78;4957283;28;96607;-85
2021/06/26 02:43:47;;;;;;;;;;;;;;;22.51;49.15;101513.72;4956433;28;99840;-84
2021/06/26 02:46:13;;;;;;;;;;;;;;;22.28;49.83;101509.16;4959979;28;100064;-83
2021/06/26 02:48:41;;;;;;;;;;;;;;;22.17;49.97;101509.97;4966186;28;96546;-84
2021/06/26 02:51:07;;;;;;;;;;;;;;;22.19;49.96;101515.22;4955294;28;96856;-84
2021/06/26 02:53:34;;;;;;;;;;;;;;;22.33;49.56;101514.22;4956865;28;97830;-83
2021/06/26 02:56:00;;;;;;;;;;;;;;;22.25;50.10;101514.78;4958276;28;98978;-84
2021/06/26 02:58:26;;;;;;;;;;;;;;;22.20;50.22;101519.63;4947497;28;96695;-85
2021/06/26 03:00:53;;;;;;;;;;;;;;;22.22;50.61;101523.94;4951136;28;98104;-85
2021/06/26 03:03:19;;;;;;;;;;;;;;;22.17;50.75;101522.56;4944143;28;98768;-85
2021/06/26 03:05:47;;;;;;;;;;;;;;;22.08;51.05;101517.81;4939248;28;97153;-86
2021/06/26 03:08:13;;;;;;;;;;;;;;;22.21;50.56;101519.53;4949009;28;96856;-84
2021/06/26 03:10:39;;;;;;;;;;;;;;;22.27;50.44;101518.22;4955737;28;96957;-85
2021/06/26 03:13:06;;;;;;;;;;;;;;;22.04;51.23;101519.03;4959858;28;99437;-85
2021/06/26 03:15:32;;;;;;;;;;;;;;;22.13;51.03;101521.03;4947920;28;98837;-84
2021/06/26 03:17:59;;;;;;;;;;;;;;;22.02;51.15;101521.81;4956784;28;97147;-85
2021/06/26 03:20:25;;;;;;;;;;;;;;;22.25;50.28;101523.69;4947848;28;96895;-84
2021/06/26 03:22:53;;;;;;;;;;;;;;;22.26;49.99;101524.56;4952449;28;98323;-84
2021/06/26 03:25:19;;;;;;;;;;;;;;;22.09;50.72;101523.09;4948179;28;98898;-85
2021/06/26 03:27:45;;;;;;;;;;;;;;;22.24;50.89;101529.22;4952162;28;96832;-84
2021/06/26 03:30:12;;;;;;;;;;;;;;;22.25;50.67;101533.63;4958539;28;96635;-84
2021/06/26 03:32:39;;;;;;;;;;;;;;;22.11;50.93;101533.75;4960716;28;99537;-85
2021/06/26 03:35:06;;;;;;;;;;;;;;;22.31;50.70;101535.88;4946773;28;97847;-84
2021/06/26 03:37:32;;;;;;;;;;;;;;;22.35;50.76;101540.06;4948948;28;97111;-85
2021/06/26 03:40:00;;;;;;;;;;;;;;;22.29;50.71;101536.97;4962129;28;96885;-84
2021/06/26 03:42:26;;;;;;;;;;;;;;;22.45;50.22;101538.41;4967142;28;98165;-85
2021/06/26 03:44:53;;;;;;;;;;;;;;;22.33;50.99;101538.44;4978277;28;97980;-84
2021/06/26 03:47:19;;;;;;;;;;;;;;;22.47;50.34;101541.88;4975287;28;96002;-85
2021/06/26 03:49:45;;;;;;;;;;;;;;;22.38;50.39;101536.31;4974594;28;96439;-86
2021/06/26 03:52:12;;;;;;;;;;;;;;;22.41;50.30;101541.44;4964919;28;98187;-85
2021/06/26 03:54:38;;;;;;;;;;;;;;;22.40;50.92;101548.66;4952621;28;97687;-85
2021/06/26 03:57:06;;;;;;;;;;;;;;;22.84;49.66;101544.59;4960047;28;96878;-85
2021/06/26 03:59:33;;;;;;;;;;;;;;;22.84;49.44;101550.81;4950616;28;97231;-85
2021/06/26 04:01:59;;;;;;;;;;;;;;;23.10;49.21;101548.91;4954057;28;97888;-85
2021/06/26 04:04:25;;;;;;;;;;;;;;;23.11;49.14;101550.59;4946854;28;97704;-85
2021/06/26 04:06:51;;;;;;;;;;;;;;;23.41;48.08;101553.69;4953629;28;96735;-85
2021/06/26 04:09:18;;;;;;;;;;;;;;;23.26;48.86;101553.97;4957147;28;98731;-85
2021/06/26 04:11:44;;;;;;;;;;;;;;;23.35;48.76;101558.69;4955191;28;99066;-84
2021/06/26 04:14:12;;;;;;;;;;;;;;;23.74;47.98;101554.78;4957798;28;99230;-85
2021/06/26 04:16:39;;;;;;;;;;;;;;;23.82;47.51;101555.91;4960162;28;97275;-84
2021/06/26 04:19:05;;;;;;;;;;;;;;;24.22;46.15;101553.63;4947366;28;97357;-84
2021/06/26 04:21:31;;;;;;;;;;;;;;;24.53;45.11;101551.19;4960445;28;98898;-84
2021/06/26 04:23:58;;;;;;;;;;;;;;;24.74;44.36;101549.44;4954594;28;97670;-85
2021/06/26 04:26:24;;;;;;;;;;;;;;;24.67;45.11;101556.31;4952385;28;96941;-84
2021/06/26 04:28:51;;;;;;;;;;;;;;;24.83;44.85;101564.00;4959406;28;97179;-86
2021/06/26 04:31:18;;;;;;;;;;;;;;;25.00;43.83;101564.38;4961260;28;97934;-85
2021/06/26 04:33:45;;;;;;;;;;;;;;;24.86;42.94;101548.41;4957796;28;97756;-85
2021/06/26 04:36:14;;;;;;;;;;;;;;;24.63;43.25;101560.22;4948915;28;97143;-84
2021/06/26 04:38:40;;;;;;;;;;;;;;;24.68;43.37;101557.19;4946362;28;96798;-85
2021/06/26 04:41:06;;;;;;;;;;;;;;;24.92;43.10;101560.59;4959738;28;98941;-85
2021/06/26 04:43:32;;;;;;;;;;;;;;;25.15;42.37;101564.06;4946663;28;98842;-84
2021/06/26 04:45:59;;;;;;;;;;;;;;;25.29;42.13;101569.16;4966288;28;96664;-84
2021/06/26 04:48:28;;;;;;;;;;;;;;;25.31;42.35;101569.91;4964764;28;97053;-84
2021/06/26 04:50:54;;;;;;;;;;;;;;;25.45;42.21;101568.75;4966958;28;100322;-84
2021/06/26 04:53:21;;;;;;;;;;;;;;;25.36;42.09;101567.66;4972842;28;97757;-84
2021/06/26 04:55:52;;;;;;;;;;;;;;;25.21;42.65;101569.81;4979638;28;96609;-85
2021/06/26 04:58:19;;;;;;;;;;;;;;;25.71;41.47;101565.56;4977377;28;95884;-83
2021/06/26 05:00:46;;;;;;;;;;;;;;;25.92;41.30;101575.53;4974864;28;98652;-83
2021/06/26 05:03:12;;;;;;;;;;;;;;;25.98;41.13;101581.25;4963031;28;97699;-83
2021/06/26 05:05:39;;;;;;;;;;;;;;;26.34;40.00;101576.31;4973848;28;95953;-84
2021/06/26 05:08:06;;;;;;;;;;;;;;;26.50;39.18;101576.69;4968689;28;96601;-84
2021/06/26 05:10:32;;;;;;;;;;;;;;;26.52;38.95;101572.81;4966268;28;98652;-84
2021/06/26 05:12:58;;;;;;;;;;;;;;;26.42;38.89;101576.50;4974522;28;98829;-82
2021/06/26 05:15:27;;;;;;;;;;;;;;;26.32;39.49;101576.44;4956716;28;96680;-86
2021/06/26 05:17:53;;;;;;;;;;;;;;;26.46;38.86;101583.34;4963978;28;96877;-85
2021/06/26 05:20:19;;;;;;;;;;;;;;;26.82;38.63;101579.22;4964254;28;97828;-84
2021/06/26 05:22:48;;;;;;;;;;;;;;;26.74;38.63;101582.59;4965838;28;98055;-84
2021/06/26 05:25:15;;;;;;;;;;;;;;;26.61;38.66;101590.13;4975838;28;96639;-83
2021/06/26 05:27:41;;;;;;;;;;;;;;;26.39;38.68;101582.19;4978924;28;96787;-84
2021/06/26 05:30:08;;;;;;;;;;;;;;;26.51;38.27;101584.69;4976405;28;96983;-84
2021/06/26 05:32:34;;;;;;;;;;;;;;;26.47;38.50;101587.78;4977645;28;97704;-85
2021/06/26 05:35:01;;;;;;;;;;;;;;;26.44;38.70;101588.94;4975544;28;96690;-83
2021/06/26 05:37:28;;;;;;;;;;;;;;;26.67;38.08;101589.56;4954553;28;96731;-85
2021/06/26 05:39:55;;;;;;;;;;;;;;;26.64;38.46;101589.88;4955321;28;98204;-85
2021/06/26 05:42:22;;;;;;;;;;;;;;;26.82;38.00;101592.75;4957093;28;98097;-84
2021/06/26 05:44:48;;;;;;;;;;;;;;;26.46;38.71;101589.63;4955744;28;97479;-84
2021/06/26 05:47:14;;;;;;;;;;;;;;;26.17;39.54;101586.78;4950826;28;96687;-84
2021/06/26 05:49:41;;;;;;;;;;;;;;;25.49;40.54;101590.00;4965668;28;98897;-85
2021/06/26 05:52:07;;;;;;;;;;;;;;;26.01;39.82;101590.94;4959166;28;99151;-84
2021/06/26 05:54:34;;;;;;;;;;;;;;;26.25;39.29;101582.56;4962059;28;96655;-84
2021/06/26 05:57:02;;;;;;;;;;;;;;;26.31;39.04;101585.59;4969534;28;96750;-84
2021/06/26 05:59:28;;;;;;;;;;;;;;;26.07;39.27;101593.97;4955236;28;97796;-85
2021/06/26 06:01:55;;;;;;;;;;;;;;;26.46;38.57;101584.22;4941550;28;98784;-84
2021/06/26 06:04:21;;;;;;;;;;;;;;;26.73;38.04;101590.88;4955755;28;96895;-84
2021/06/26 06:06:48;;;;;;;;;;;;;;;26.94;37.67;101584.41;4955722;28;97230;-84
2021/06/26 06:09:14;;;;;;;;;;;;;;;26.86;37.33;101584.19;4955481;28;98927;-85
2021/06/26 06:11:40;;;;;;;;;;;;;;;26.42;37.89;101582.78;4960643;28;99237;-82
2021/06/26 06:14:08;;;;;;;;;;;;;;;26.31;37.82;101587.44;4964440;28;96559;-83
2021/06/26 06:16:35;;;;;;;;;;;;;;;26.57;37.64;101586.84;4972480;28;96604;-83
2021/06/26 06:19:02;;;;;;;;;;;;;;;26.48;37.61;101586.81;4969598;28;98907;-83
2021/06/26 06:21:28;;;;;;;;;;;;;;;26.09;38.61;101583.03;4954328;28;96935;-83
2021/06/26 06:23:55;;;;;;;;;;;;;;;26.37;38.07;101584.19;4958001;28;97383;-82
2021/06/26 06:26:22;;;;;;;;;;;;;;;26.46;38.36;101586.94;4960988;28;97330;-83
2021/06/26 06:28:49;;;;;;;;;;;;;;;26.63;38.54;101588.16;4962171;28;100962;-85
2021/06/26 06:31:16;;;;;;;;;;;;;;;26.20;38.78;101599.19;4957531;28;98631;-85
2021/06/26 06:33:43;;;;;;;;;;;;;;;26.14;39.04;101597.00;4947981;28;96624;-84
2021/06/26 06:36:09;;;;;;;;;;;;;;;26.26;38.37;101595.97;4960744;28;96784;-81
2021/06/26 06:38:35;;;;;;;;;;;;;;;26.05;39.05;101593.28;4965626;28;97867;-84
2021/06/26 06:41:02;;;;;;;;;;;;;;;25.99;39.12;101592.97;4962368;28;100329;-84
2021/06/26 06:43:28;;;;;;;;;;;;;;;26.01;38.88;101597.22;4958861;28;97172;-84
2021/06/26 06:45:55;;;;;;;;;;;;;;;26.07;38.74;101596.69;4974357;28;96943;-84
2021/06/26 06:48:34;;;;;;;;;;;;;;;26.37;38.32;101593.19;4973832;28;98262;-86
2021/06/26 06:51:07;;;;;;;;;;;;;;;26.20;38.21;101593.75;4974356;28;98948;-85
2021/06/26 06:53:44;;;;;;;;;;;;;;;26.12;38.47;101602.56;4966086;28;96623;-84
2021/06/26 06:58:52;;;;;;;;;;;;;;;27.11;37.10;101592.88;4971183;28;98557;-86
2021/06/26 07:01:18;;;;;;;;;;;;;;;27.38;35.90;101604.72;4964712;28;99039;-83
2021/06/26 07:09:32;;;;;;;;;;;;;;;28.02;34.75;101598.69;4967905;28;97480;-86
2021/06/26 07:12:00;;;;;;;;;;;;;;;28.00;34.81;101592.53;4964129;28;98317;-85
2021/06/26 07:17:08;;;;;;;;;;;;;;;27.14;35.59;101598.00;4961940;28;97622;-84
2021/06/26 07:22:24;;;;;;;;;;;;;;;27.99;33.75;101595.41;4962648;28;98723;-85
2021/06/26 07:24:54;;;;;;;;;;;;;;;28.51;32.33;101594.81;4964888;28;96816;-87
2021/06/26 07:27:21;;;;;;;;;;;;;;;28.61;32.50;101591.22;4966016;28;96784;-83
2021/06/26 07:29:52;;;;;;;;;;;;;;;28.69;32.32;101589.44;4967540;28;100647;-86
2021/06/26 07:32:19;;;;;;;;;;;;;;;28.68;31.91;101590.47;4968086;28;96944;-84
2021/06/26 07:43:08;;;;;;;;;;;;;;;26.93;33.14;101579.09;4968099;28;98337;-86
2021/06/26 07:45:37;;;;;;;;;;;;;;;27.84;32.07;101581.41;4971285;28;97648;-86
2021/06/26 07:48:04;;;;;;;;;;;;;;;28.67;31.02;101572.44;4969528;28;97051;-83
2021/06/26 07:50:34;;;;;;;;;;;;;;;29.36;29.61;101573.72;4974533;28;97301;-84
2021/06/26 07:53:24;;;;;;;;;;;;;;;29.59;29.79;101572.22;4978660;28;99559;-83
2021/06/26 07:55:53;;;;;;;;;;;;;;;28.21;30.58;101569.78;4951394;28;96789;-80
2021/06/26 08:01:00;;;;;;;;;;;;;;;29.03;29.41;101554.31;4969064;28;96658;-84
2021/06/26 08:03:26;;;;;;;;;;;;;;;28.88;28.75;101556.72;4973905;28;97646;-84
2021/06/26 08:05:54;;;;;;;;;;;;;;;28.99;28.46;101560.22;4980695;28;96583;-83
2021/06/26 08:08:28;;;;;;;;;;;;;;;29.67;27.99;101558.66;4980719;28;96317;-83
2021/06/26 08:11:20;;;;;;;;;;;;;;;29.66;27.37;101563.28;5005708;23;98499;-81
2021/06/26 08:13:49;;;;;;;;;;;;;;;30.46;25.06;101559.34;4958142;28;96147;-81
2021/06/26 08:16:16;;;;;;;;;;;;;;;30.40;24.81;101557.25;4962055;28;96505;-83
2021/06/26 08:18:43;;;;;;;;;;;;;;;29.91;25.96;101560.72;4956764;28;96043;-79
2021/06/26 08:21:10;;;;;;;;;;;;;;;30.61;25.33;101558.75;4956652;28;98503;-83
2021/06/26 08:23:37;;;;;;;;;;;;;;;30.02;26.23;101565.91;4958264;28;97738;-83
2021/06/26 08:26:15;;;;;;;;;;;;;;;29.02;27.66;101558.03;4956423;28;96980;-84
2021/06/26 08:28:42;;;;;;;;;;;;;;;29.63;27.36;101566.31;4953423;28;96569;-81
2021/06/26 08:31:09;;;;;;;;;;;;;;;30.20;26.00;101557.66;4952437;28;98972;-81
2021/06/26 08:33:35;;;;;;;;;;;;;;;30.20;25.93;101560.41;4944286;28;96769;-82
2021/06/26 08:36:02;;;;;;;;;;;;;;;30.44;25.52;101553.22;4940746;28;96513;-82
2021/06/26 08:38:28;;;;;;;;;;;;;;;29.96;26.83;101555.66;4955333;28;96352;-83
2021/06/26 08:40:56;;;;;;;;;;;;;;;29.35;27.87;101553.81;4939529;28;101839;-82
2021/06/26 08:43:33;;;;;;;;;;;;;;;27.84;29.33;101551.53;4944732;28;101967;-83
2021/06/26 08:46:00;;;;;;;;;;;;;;;27.67;29.29;101552.31;4943880;28;96744;-83
2021/06/26 08:48:27;;;;;;;;;;;;;;;28.51;27.87;101553.19;4944798;28;96528;-82
2021/06/26 08:50:53;;;;;;;;;;;;;;;28.62;26.95;101550.25;4940185;28;97912;-82
2021/06/26 08:53:20;;;;;;;;;;;;;;;29.20;26.42;101550.75;4946593;28;99109;-81
2021/06/26 08:55:46;;;;;;;;;;;;;;;29.88;25.97;101545.53;4926925;28;96795;-82
2021/06/26 08:58:13;;;;;;;;;;;;;;;30.40;24.62;101545.50;4930078;28;96946;-80
2021/06/26 09:00:41;;;;;;;;;;;;;;;30.66;23.89;101550.91;4939385;28;100155;-81
2021/06/26 09:03:10;;;;;;;;;;;;;;;30.42;25.25;101552.50;4937795;28;98790;-81
2021/06/26 09:05:38;;;;;;;;;;;;;;;29.31;26.36;101558.69;4938592;28;96813;-81
2021/06/26 09:08:07;;;;;;;;;;;;;;;28.49;28.10;101550.59;4934914;28;96932;-81
2021/06/26 09:10:34;;;;;;;;;;;;;;;29.80;27.14;101542.75;4945649;28;100588;-82
2021/06/26 09:13:10;;;;;;;;;;;;;;;30.72;25.08;101540.19;4941345;28;97694;-82
2021/06/26 09:15:36;;;;;;;;;;;;;;;29.97;25.77;101543.75;4944784;28;96787;-82
2021/06/26 09:18:10;;;;;;;;;;;;;;;29.61;24.62;101541.09;4940801;28;96772;-84
2021/06/26 09:20:39;;;;;;;;;;;;;;;29.80;24.28;101539.19;4946895;28;97860;-84
2021/06/26 09:23:16;;;;;;;;;;;;;;;29.26;24.64;101538.41;4939561;28;103771;-83
2021/06/26 09:25:42;;;;;;;;;;;;;;;28.47;26.00;101535.47;4943594;28;96908;-84
2021/06/26 09:28:10;;;;;;;;;;;;;;;28.62;25.96;101539.38;4939692;28;96771;-85
2021/06/26 09:30:38;;;;;;;;;;;;;;;28.86;25.66;101542.44;4939398;28;98169;-85
2021/06/26 09:33:23;;;;;;;;;;;;;;;29.20;24.72;101539.88;4928467;28;98453;-84
2021/06/26 09:36:02;;;;;;;;;;;;;;;30.07;23.83;101542.63;4934132;28;96612;-82
2021/06/26 09:38:30;;;;;;;;;;;;;;;30.30;23.76;101547.50;4938727;28;96891;-83
2021/06/26 09:40:56;;;;;;;;;;;;;;;30.40;24.09;101535.44;4947584;28;99102;-84
2021/06/26 09:43:27;;;;;;;;;;;;;;;29.65;25.89;101544.38;4954619;28;97707;-83
2021/06/26 09:46:04;;;;;;;;;;;;;;;29.06;27.00;101548.59;4953018;28;96799;-82
2021/06/26 09:48:31;;;;;;;;;;;;;;;28.46;27.80;101536.47;4932000;28;96716;-80
2021/06/26 09:50:57;;;;;;;;;;;;;;;29.30;26.80;101546.09;4929101;28;97950;-80
2021/06/26 09:53:25;;;;;;;;;;;;;;;28.86;27.86;101536.13;4920677;28;97220;-80
2021/06/26 09:55:53;;;;;;;;;;;;;;;29.57;26.10;101538.84;4921496;28;96749;-80
2021/06/26 09:58:20;;;;;;;;;;;;;;;30.01;25.94;101542.41;4920085;28;97137;-80
2021/06/26 10:00:47;;;;;;;;;;;;;;;29.67;25.40;101537.72;4936024;28;99009;-79
2021/06/26 10:03:16;;;;;;;;;;;;;;;29.57;26.04;101531.53;4926627;28;98146;-80
2021/06/26 10:05:44;;;;;;;;;;;;;;;29.80;25.73;101533.75;4920354;28;96851;-80
2021/06/26 10:08:10;;;;;;;;;;;;;;;30.08;25.33;101543.47;4919550;28;97649;-80
2021/06/26 10:10:38;;;;;;;;;;;;;;;30.04;25.10;101542.09;4918914;28;96870;-80
2021/06/26 10:13:04;;;;;;;;;;;;;;;29.36;24.90;101539.19;4919202;28;97807;-81
2021/06/26 10:15:32;;;;;;;;;;;;;;;29.36;24.60;101541.03;4919032;28;97036;-80
2021/06/26 10:17:58;;;;;;;;;;;;;;;29.77;22.80;101536.78;4926352;28;98134;-80
2021/06/26 10:20:25;;;;;;;;;;;;;;;30.10;22.70;101538.72;4925405;28;101835;-81
2021/06/26 10:22:53;;;;;;;;;;;;;;;29.90;24.04;101539.94;4938379;28;97082;-80
2021/06/26 10:25:20;;;;;;;;;;;;;;;29.97;21.95;101546.47;4924207;28;96745;-81
2021/06/26 10:27:48;;;;;;;;;;;;;;;29.37;23.24;101540.91;4929304;28;96857;-80
2021/06/26 10:30:18;;;;;;;;;;;;;;;29.17;22.88;101536.59;4929159;28;99096;-81
2021/06/26 10:32:54;;;;;;;;;;;;;;;29.68;22.49;101527.69;4917462;28;98880;-80
2021/06/26 10:35:21;;;;;;;;;;;;;;;29.82;21.64;101534.41;4930295;28;96747;-80
2021/06/26 10:37:58;;;;;;;;;;;;;;;30.10;21.45;101531.41;4921577;28;96839;-80
2021/06/26 10:40:34;;;;;;;;;;;;;;;29.60;21.41;101525.75;4917169;28;98373;-79
2021/06/26 10:43:12;;;;;;;;;;;;;;;29.43;21.11;101518.50;4936076;28;99109;-79
2021/06/26 10:45:38;;;;;;;;;;;;;;;29.98;20.80;101515.50;4917451;28;97082;-80
2021/06/26 10:48:13;;;;;;;;;;;;;;;30.03;22.39;101515.84;4916876;28;96818;-79
2021/06/26 10:50:44;;;;;;;;;;;;;;;29.96;22.17;101521.09;4917894;28;98965;-82
2021/06/26 10:53:10;;;;;;;;;;;;;;;29.63;21.04;101514.56;4917789;28;98833;-78
2021/06/26 10:55:38;;;;;;;;;;;;;;;29.41;20.74;101509.63;4918070;28;96677;-79
2021/06/26 10:58:06;;;;;;;;;;;;;;;29.50;21.27;101510.53;4919605;28;96745;-80
2021/06/26 11:00:33;;;;;;;;;;;;;;;29.50;21.44;101514.13;4932468;28;99840;-81
2021/06/26 11:03:00;;;;;;;;;;;;;;;29.48;20.55;101515.28;4928506;28;98776;-79
2021/06/26 11:05:27;;;;;;;;;;;;;;;29.41;20.14;101517.78;4938006;28;97112;-80
2021/06/26 11:07:54;;;;;;;;;;;;;;;29.75;20.99;101508.84;4932963;28;97333;-79
2021/06/26 11:10:20;;;;;;;;;;;;;;;29.93;22.10;101504.25;4937038;28;99197;-80
2021/06/26 11:12:48;;;;;;;;;;;;;;;30.02;20.64;101500.53;4924217;28;99027;-81
2021/06/26 11:15:24;;;;;;;;;;;;;;;29.77;20.91;101510.41;4921609;28;96908;-80
2021/06/26 11:17:51;;;;;;;;;;;;;;;29.19;21.07;101501.94;4921445;28;96828;-81
2021/06/26 11:20:18;;;;;;;;;;;;;;;29.16;20.86;101505.81;4922336;28;100651;-81
2021/06/26 11:22:45;;;;;;;;;;;;;;;29.53;20.66;101507.50;4928741;28;97866;-81
2021/06/26 11:25:12;;;;;;;;;;;;;;;29.13;20.68;101510.72;4945152;28;96649;-85
2021/06/26 11:27:38;;;;;;;;;;;;;;;28.46;21.48;101504.72;4936757;28;96929;-85
2021/06/26 11:30:06;;;;;;;;;;;;;;;29.36;20.92;101506.50;4948235;28;99293;-85
2021/06/26 11:32:35;;;;;;;;;;;;;;;29.70;20.42;101499.28;4955731;28;96611;-85
2021/06/26 11:35:03;;;;;;;;;;;;;;;30.03;18.96;101494.91;4957437;28;96801;-84
2021/06/26 11:37:33;;;;;;;;;;;;;;;30.68;18.99;101499.78;4953632;28;96764;-86
2021/06/26 11:39:59;;;;;;;;;;;;;;;29.78;19.47;101501.22;4936151;28;99450;-84
2021/06/26 11:42:26;;;;;;;;;;;;;;;29.07;20.20;101500.47;4937311;28;97732;-82
2021/06/26 11:44:53;;;;;;;;;;;;;;;29.77;19.86;101502.22;4949660;28;96670;-81
2021/06/26 11:47:29;;;;;;;;;;;;;;;29.77;19.50;101494.06;4938768;28;96753;-83
2021/06/26 11:49:56;;;;;;;;;;;;;;;29.59;19.84;101494.13;4932769;28;99710;-82
2021/06/26 11:52:33;;;;;;;;;;;;;;;29.60;20.41;101497.69;4929578;28;100788;-83
2021/06/26 11:54:59;;;;;;;;;;;;;;;29.21;21.05;101498.03;4935149;28;96765;-82
2021/06/26 11:57:28;;;;;;;;;;;;;;;29.58;20.29;101499.72;4947664;28;96803;-81
2021/06/26 11:59:55;;;;;;;;;;;;;;;28.64;21.32;101493.88;4939568;28;98753;-82
2021/06/26 12:02:29;;;;;;;;;;;;;;;28.57;21.13;101498.19;4944634;28;98057;-83
2021/06/26 12:04:57;;;;;;;;;;;;;;;28.81;20.47;101495.81;4937656;28;96589;-83
2021/06/26 12:07:32;;;;;;;;;;;;;;;28.81;20.72;101490.34;4943276;28;96860;-82
2021/06/26 12:09:59;;;;;;;;;;;;;;;29.16;20.42;101488.63;4928568;28;97761;-82
2021/06/26 12:12:25;;;;;;;;;;;;;;;29.48;21.71;101494.34;4926937;28;99131;-82
2021/06/26 12:14:52;;;;;;;;;;;;;;;29.55;20.59;101487.25;4933978;28;96916;-82
2021/06/26 12:17:19;;;;;;;;;;;;;;;29.96;20.00;101493.00;4922828;28;97021;-83
2021/06/26 12:19:45;;;;;;;;;;;;;;;30.35;20.18;101482.44;4937453;28;98937;-83
2021/06/26 12:22:20;;;;;;;;;;;;;;;30.25;19.11;101487.19;4929184;28;98163;-82
2021/06/26 12:24:46;;;;;;;;;;;;;;;29.66;20.03;101487.03;4924345;28;96611;-82
2021/06/26 12:27:14;;;;;;;;;;;;;;;29.93;19.87;101485.16;4922637;28;97299;-83
2021/06/26 12:29:43;;;;;;;;;;;;;;;30.46;18.44;101482.97;4932523;28;100838;-83
2021/06/26 12:32:10;;;;;;;;;;;;;;;29.64;18.46;101483.59;4938989;28;97498;-81
2021/06/26 12:34:46;;;;;;;;;;;;;;;29.26;19.30;101473.94;4943696;28;96600;-83
2021/06/26 12:37:14;;;;;;;;;;;;;;;29.92;18.83;101465.25;4930472;28;96862;-82
2021/06/26 12:39:41;;;;;;;;;;;;;;;29.32;19.32;101477.88;4928925;28;98974;-82
2021/06/26 12:42:09;;;;;;;;;;;;;;;29.37;19.80;101464.69;4922383;28;99186;-83
2021/06/26 12:44:36;;;;;;;;;;;;;;;29.92;19.77;101456.22;4934597;28;97164;-83
2021/06/26 12:47:02;;;;;;;;;;;;;;;30.04;19.30;101457.63;4921823;28;97368;-83
2021/06/26 12:49:35;;;;;;;;;;;;;;;30.63;18.79;101453.06;4927831;28;99013;-84
2021/06/26 12:52:08;;;;;;;;;;;;;;;30.48;17.93;101452.81;4930559;28;98844;-82
2021/06/26 12:54:46;;;;;;;;;;;;;;;30.44;18.25;101465.97;4938956;28;97111;-82
2021/06/26 12:57:13;;;;;;;;;;;;;;;30.89;18.09;101451.91;4943420;28;97217;-82
2021/06/26 12:59:39;;;;;;;;;;;;;;;30.36;16.88;101448.72;4945426;28;98318;-83
2021/06/26 13:02:05;;;;;;;;;;;;;;;30.16;16.54;101445.41;4948362;28;99307;-83
2021/06/26 13:04:37;;;;;;;;;;;;;;;30.60;16.66;101439.75;4944911;28;97187;-82